createdAt,value
2023-09-12T00:00:24.911Z,12.36
2023-09-12T00:03:13.845Z,12.35
2023-09-12T00:05:42.802Z,12.38
2023-09-12T00:08:11.520Z,12.40
2023-09-12T00:10:40.192Z,12.43
2023-09-12T00:13:08.862Z,12.50
2023-09-12T00:15:37.648Z,12.54
2023-09-12T00:18:06.412Z,12.61
2023-09-12T00:20:35.122Z,12.74
2023-09-12T00:23:05.657Z,12.81
2023-09-12T00:25:34.358Z,12.81
2023-09-12T00:28:03.152Z,12.84
2023-09-12T00:30:32.553Z,12.85
2023-09-12T00:33:01.489Z,12.79
2023-09-12T00:35:30.267Z,12.70
2023-09-12T00:37:58.996Z,12.66
2023-09-12T00:40:27.886Z,12.61
2023-09-12T00:42:57.109Z,12.54
2023-09-12T00:45:26.344Z,12.52
2023-09-12T00:47:55.683Z,12.45
2023-09-12T00:50:26.472Z,12.41
2023-09-12T00:52:56.048Z,12.34
2023-09-12T00:55:24.857Z,12.29
2023-09-12T00:57:55.246Z,12.23
2023-09-12T01:00:24.483Z,12.18
2023-09-12T01:02:55.388Z,12.16
2023-09-12T01:05:24.487Z,12.14
2023-09-12T01:07:53.388Z,12.12
2023-09-12T01:10:22.458Z,12.10
2023-09-12T01:12:52.022Z,12.06
2023-09-12T01:15:20.797Z,12.04
2023-09-12T01:17:50.177Z,12.00
2023-09-12T01:20:32.553Z,11.95
2023-09-12T01:23:29.595Z,11.91
2023-09-12T01:26:10.316Z,11.86
2023-09-12T01:28:44.285Z,11.79
2023-09-12T01:31:16.610Z,11.73
2023-09-12T01:33:45.420Z,11.69
2023-09-12T01:36:14.450Z,11.63
2023-09-12T01:38:43.848Z,11.55
2023-09-12T01:41:13.692Z,11.50
2023-09-12T01:43:44.195Z,11.44
2023-09-12T01:46:14.730Z,11.42
2023-09-12T01:48:45.445Z,11.39
2023-09-12T01:51:16.182Z,11.36
2023-09-12T01:53:47.323Z,11.33
2023-09-12T01:56:16.118Z,11.30
2023-09-12T01:58:44.929Z,11.27
2023-09-12T02:01:13.721Z,11.23
2023-09-12T02:03:42.617Z,11.22
2023-09-12T02:06:11.422Z,11.23
2023-09-12T02:08:40.643Z,11.27
2023-09-12T02:11:11.148Z,11.29
2023-09-12T02:13:39.925Z,11.28
2023-09-12T02:16:10.128Z,11.29
2023-09-12T02:18:39.068Z,11.28
2023-09-12T02:21:07.871Z,11.24
2023-09-12T02:23:36.647Z,11.23
2023-09-12T02:26:05.374Z,11.22
2023-09-12T02:28:34.156Z,11.20
2023-09-12T02:31:03.024Z,11.19
2023-09-12T02:33:31.910Z,11.17
2023-09-12T02:36:00.732Z,11.15
2023-09-12T02:38:29.553Z,11.14
2023-09-12T02:40:58.368Z,11.11
2023-09-12T02:43:27.193Z,11.08
2023-09-12T02:45:56.213Z,11.04
2023-09-12T02:48:25.095Z,11.02
2023-09-12T02:50:54.487Z,11.00
2023-09-12T02:53:23.313Z,10.96
2023-09-12T02:55:53.019Z,10.92
2023-09-12T02:58:21.934Z,10.89
2023-09-12T03:00:51.586Z,10.87
2023-09-12T03:03:20.405Z,10.85
2023-09-12T03:05:49.308Z,10.87
2023-09-12T03:08:18.030Z,10.89
2023-09-12T03:10:56.283Z,10.86
2023-09-12T03:13:26.720Z,10.80
2023-09-12T03:15:55.751Z,10.77
2023-09-12T03:18:24.866Z,10.76
2023-09-12T03:20:53.781Z,10.75
2023-09-12T03:23:22.636Z,10.74
2023-09-12T03:25:51.637Z,10.73
2023-09-12T03:28:20.413Z,10.73
2023-09-12T03:30:49.565Z,10.72
2023-09-12T03:33:18.457Z,10.71
2023-09-12T03:35:47.342Z,10.72
2023-09-12T03:38:16.025Z,10.73
2023-09-12T03:40:44.731Z,10.73
2023-09-12T03:43:13.349Z,10.70
2023-09-12T03:45:42.086Z,10.70
2023-09-12T03:48:11.244Z,10.69
2023-09-12T03:50:40.242Z,10.67
2023-09-12T03:53:09.613Z,10.66
2023-09-12T03:55:38.484Z,10.62
2023-09-12T03:58:07.332Z,10.61
2023-09-12T04:00:36.192Z,10.63
2023-09-12T04:03:05.700Z,10.72
2023-09-12T04:05:34.622Z,10.71
2023-09-12T04:08:04.073Z,10.73
2023-09-12T04:10:33.732Z,10.74
2023-09-12T04:13:02.390Z,10.78
2023-09-12T04:15:31.188Z,10.80
2023-09-12T04:18:00.066Z,10.88
2023-09-12T04:20:28.864Z,10.94
2023-09-12T04:22:57.559Z,11.01
2023-09-12T04:25:26.901Z,11.07
2023-09-12T04:27:55.638Z,11.14
2023-09-12T04:30:24.662Z,11.22
2023-09-12T04:32:53.428Z,11.33
2023-09-12T04:35:22.165Z,11.45
2023-09-12T04:37:50.919Z,11.56
2023-09-12T04:40:19.795Z,11.69
2023-09-12T04:42:48.606Z,11.83
2023-09-12T04:45:17.887Z,11.98
2023-09-12T04:47:46.716Z,12.10
2023-09-12T04:50:15.565Z,12.26
2023-09-12T04:52:44.354Z,12.41
2023-09-12T04:55:13.088Z,12.58
2023-09-12T04:57:42.783Z,12.74
2023-09-12T05:00:12.806Z,12.92
2023-09-12T05:02:41.586Z,13.10
2023-09-12T05:05:10.523Z,13.28
2023-09-12T05:07:39.272Z,13.47
2023-09-12T05:10:08.663Z,13.68
2023-09-12T05:12:37.518Z,13.91
2023-09-12T05:15:06.960Z,14.09
2023-09-12T05:17:35.715Z,14.34
2023-09-12T05:20:08.597Z,14.61
2023-09-12T05:22:37.263Z,14.86
2023-09-12T05:25:06.718Z,15.14
2023-09-12T05:27:35.396Z,15.38
2023-09-12T05:30:04.927Z,15.58
2023-09-12T05:32:33.906Z,15.73
2023-09-12T05:35:14.812Z,15.82
2023-09-12T05:37:49.056Z,16.02
2023-09-12T05:40:18.413Z,16.08
2023-09-12T05:42:47.427Z,16.21
2023-09-12T05:45:16.353Z,16.37
2023-09-12T05:47:45.126Z,16.62
2023-09-12T05:50:14.253Z,16.80
2023-09-12T05:52:44.075Z,16.86
2023-09-12T05:55:14.324Z,16.90
2023-09-12T05:57:43.130Z,16.90
2023-09-12T06:00:13.276Z,16.95
2023-09-12T06:02:43.662Z,17.12
2023-09-12T06:05:12.432Z,17.26
2023-09-12T06:07:42.703Z,17.38
2023-09-12T06:10:11.989Z,17.56
2023-09-12T06:12:40.848Z,17.64
2023-09-12T06:15:10.602Z,17.71
2023-09-12T06:17:39.345Z,17.76
2023-09-12T06:20:09.084Z,17.73
2023-09-12T06:22:37.786Z,17.89
2023-09-12T06:25:07.427Z,18.04
2023-09-12T06:27:36.275Z,18.14
2023-09-12T06:30:05.824Z,18.22
2023-09-12T06:32:34.768Z,18.22
2023-09-12T06:35:03.494Z,18.23
2023-09-12T06:37:32.289Z,18.27
2023-09-12T06:40:00.941Z,18.32
2023-09-12T06:42:29.809Z,18.46
2023-09-12T06:44:58.595Z,18.61
2023-09-12T06:47:27.455Z,18.67
2023-09-12T06:49:56.740Z,18.71
2023-09-12T06:52:25.830Z,18.79
2023-09-12T06:54:54.684Z,18.90
2023-09-12T06:57:23.516Z,19.02
2023-09-12T06:59:52.300Z,19.12
2023-09-12T07:02:23.065Z,19.26
2023-09-12T07:04:52.022Z,19.38
2023-09-12T07:07:21.885Z,19.41
2023-09-12T07:09:50.584Z,19.50
2023-09-12T07:12:19.530Z,19.62
2023-09-12T07:14:48.246Z,19.75
2023-09-12T07:17:17.127Z,19.85
2023-09-12T07:19:46.284Z,19.96
2023-09-12T07:22:15.042Z,20.10
2023-09-12T07:24:43.881Z,20.18
2023-09-12T07:27:12.923Z,20.41
2023-09-12T07:29:41.754Z,20.57
2023-09-12T07:32:10.475Z,20.70
2023-09-12T07:34:39.395Z,20.82
2023-09-12T07:37:08.369Z,20.94
2023-09-12T07:39:37.377Z,21.05
2023-09-12T07:42:06.800Z,21.27
2023-09-12T07:44:35.784Z,21.47
2023-09-12T07:47:05.235Z,21.61
2023-09-12T07:49:34.423Z,21.68
2023-09-12T07:52:03.415Z,21.77
2023-09-12T07:54:32.438Z,21.85
2023-09-12T07:57:01.290Z,22.00
2023-09-12T07:59:30.302Z,22.11
2023-09-12T08:01:59.109Z,22.13
2023-09-12T08:04:28.032Z,22.28
2023-09-12T08:06:58.441Z,22.42
2023-09-12T08:09:49.967Z,22.52
2023-09-12T08:12:21.241Z,22.65
2023-09-12T08:14:50.157Z,22.83
2023-09-12T08:17:19.683Z,23.00
2023-09-12T08:19:48.708Z,23.21
2023-09-12T08:22:18.706Z,23.39
2023-09-12T08:24:47.931Z,23.64
2023-09-12T08:27:17.452Z,23.82
2023-09-12T08:29:48.615Z,23.82
2023-09-12T08:32:17.430Z,23.44
2023-09-12T08:34:46.804Z,23.50
2023-09-12T08:37:15.489Z,23.60
2023-09-12T08:39:46.581Z,23.64
2023-09-12T08:42:17.808Z,23.71
2023-09-12T08:44:46.737Z,23.99
2023-09-12T08:47:16.902Z,24.18
2023-09-12T08:49:46.361Z,24.42
2023-09-12T08:52:15.302Z,24.21
2023-09-12T08:54:44.266Z,24.30
2023-09-12T08:57:14.399Z,24.24
2023-09-12T08:59:45.400Z,24.04
2023-09-12T09:02:14.851Z,24.35
2023-09-12T09:04:48.828Z,24.46
2023-09-12T09:07:19.916Z,24.57
2023-09-12T09:09:52.979Z,24.86
2023-09-12T09:12:22.094Z,25.04
2023-09-12T09:14:51.451Z,25.19
2023-09-12T09:17:34.564Z,25.33
2023-09-12T09:20:10.369Z,25.29
2023-09-12T09:22:39.185Z,25.20
2023-09-12T09:25:14.454Z,25.17
2023-09-12T09:27:43.410Z,25.36
2023-09-12T09:30:13.103Z,25.56
2023-09-12T09:32:42.037Z,25.56
2023-09-12T09:35:11.081Z,25.65
2023-09-12T09:37:40.596Z,25.84
2023-09-12T09:40:11.391Z,25.74
2023-09-12T09:42:40.285Z,25.76
2023-09-12T09:45:09.734Z,25.85
2023-09-12T09:47:38.649Z,25.93
2023-09-12T09:50:08.321Z,25.88
2023-09-12T09:52:37.196Z,25.54
2023-09-12T09:55:08.756Z,25.44
2023-09-12T09:57:40.703Z,25.71
2023-09-12T10:00:10.320Z,25.77
2023-09-12T10:02:41.459Z,25.84
2023-09-12T10:05:12.497Z,26.08
2023-09-12T10:07:43.346Z,26.19
2023-09-12T10:10:12.790Z,26.18
2023-09-12T10:12:50.722Z,26.22
2023-09-12T10:15:21.615Z,26.52
2023-09-12T10:18:14.229Z,26.71
2023-09-12T10:20:52.203Z,26.56
2023-09-12T10:23:45.478Z,26.61
2023-09-12T10:26:15.963Z,26.99
2023-09-12T10:28:47.009Z,27.32
2023-09-12T10:31:17.624Z,27.86
2023-09-12T10:33:48.306Z,28.00
2023-09-12T10:36:19.488Z,28.22
2023-09-12T10:38:52.238Z,27.39
2023-09-12T10:41:25.354Z,27.75
2023-09-12T10:43:55.370Z,28.13
2023-09-12T10:46:24.981Z,28.26
2023-09-12T10:48:55.604Z,28.47
2023-09-12T10:51:24.605Z,28.77
2023-09-12T10:53:54.973Z,28.89
2023-09-12T10:56:25.408Z,28.37
2023-09-12T10:59:05.643Z,28.64
2023-09-12T11:01:37.084Z,28.57
2023-09-12T11:04:21.386Z,29.27
2023-09-12T11:06:51.595Z,29.40
2023-09-12T11:09:26.017Z,29.40
2023-09-12T11:12:06.562Z,29.65
2023-09-12T11:14:35.445Z,29.54
2023-09-12T11:17:10.321Z,29.97
2023-09-12T11:19:49.892Z,30.32
2023-09-12T11:22:32.276Z,30.15
2023-09-12T11:25:07.073Z,30.39
2023-09-12T11:27:54.454Z,30.73
2023-09-12T11:30:26.540Z,31.58
2023-09-12T11:32:56.440Z,32.17
2023-09-12T11:35:27.757Z,31.94
2023-09-12T11:37:59.399Z,32.07
2023-09-12T11:40:46.012Z,31.62
2023-09-12T11:43:26.129Z,31.43
2023-09-12T11:45:58.335Z,31.54
2023-09-12T11:48:30.687Z,30.79
2023-09-12T11:51:00.111Z,29.99
2023-09-12T11:53:32.382Z,29.40
2023-09-12T11:56:02.327Z,29.66
2023-09-12T11:58:31.290Z,29.92
2023-09-12T12:01:00.657Z,30.42
2023-09-12T12:03:30.164Z,31.69
2023-09-12T12:05:59.513Z,32.28
2023-09-12T12:08:32.488Z,32.24
2023-09-12T12:11:01.940Z,31.59
2023-09-12T12:13:30.945Z,31.03
2023-09-12T12:16:00.109Z,31.15
2023-09-12T12:18:29.155Z,31.63
2023-09-12T12:20:58.364Z,31.56
2023-09-12T12:23:27.419Z,31.52
2023-09-12T12:25:56.145Z,31.37
2023-09-12T12:28:24.893Z,31.96
2023-09-12T12:30:55.943Z,31.92
2023-09-12T12:34:14.792Z,31.32
2023-09-12T12:36:14.667Z,31.51
2023-09-12T12:38:52.609Z,31.33
2023-09-12T12:41:44.606Z,31.26
2023-09-12T12:44:17.218Z,31.30
2023-09-12T12:46:53.782Z,32.22
2023-09-12T12:49:24.505Z,31.84
2023-09-12T12:51:57.104Z,31.83
2023-09-12T12:54:25.978Z,32.18
2023-09-12T12:56:54.764Z,32.13
2023-09-12T12:59:23.554Z,33.23
2023-09-12T13:01:53.347Z,34.08
2023-09-12T13:04:22.605Z,34.30
2023-09-12T13:06:51.558Z,33.67
2023-09-12T13:09:20.342Z,34.20
2023-09-12T13:11:49.126Z,34.80
2023-09-12T13:14:17.868Z,35.32
2023-09-12T13:16:46.957Z,34.95
2023-09-12T13:19:15.840Z,35.13
2023-09-12T13:21:44.695Z,35.06
2023-09-12T13:24:14.672Z,34.12
2023-09-12T13:26:43.633Z,34.63
2023-09-12T13:29:12.835Z,34.32
2023-09-12T13:31:41.681Z,33.72
2023-09-12T13:34:10.781Z,32.44
2023-09-12T13:36:39.781Z,32.52
2023-09-12T13:39:08.846Z,32.60
2023-09-12T13:41:37.761Z,32.91
2023-09-12T13:44:06.965Z,33.66
2023-09-12T13:46:36.063Z,33.82
2023-09-12T13:49:05.078Z,34.03
2023-09-12T13:51:33.986Z,33.89
2023-09-12T13:54:02.875Z,34.06
2023-09-12T13:56:33.113Z,34.14
2023-09-12T13:59:01.996Z,34.59
2023-09-12T14:01:35.321Z,34.43
2023-09-12T14:04:05.927Z,33.67
2023-09-12T14:06:38.950Z,33.96
2023-09-12T14:09:08.204Z,34.66
2023-09-12T14:11:37.616Z,33.95
2023-09-12T14:14:16.327Z,33.87
2023-09-12T14:16:48.955Z,32.93
2023-09-12T14:19:18.809Z,32.47
2023-09-12T14:21:49.291Z,33.27
2023-09-12T14:24:21.244Z,33.66
2023-09-12T14:26:52.663Z,33.18
2023-09-12T14:29:23.077Z,32.22
2023-09-12T14:31:54.436Z,32.62
2023-09-12T14:34:23.239Z,33.07
2023-09-12T14:36:52.047Z,32.95
2023-09-12T14:39:21.411Z,32.05
2023-09-12T14:41:53.501Z,31.86
2023-09-12T14:44:23.335Z,31.29
2023-09-12T14:46:52.489Z,31.09
2023-09-12T14:49:21.838Z,31.41
2023-09-12T14:51:50.732Z,31.77
2023-09-12T14:54:19.535Z,31.80
2023-09-12T14:56:48.276Z,31.55
2023-09-12T14:59:18.560Z,32.17
2023-09-12T15:01:47.824Z,32.34
2023-09-12T15:04:16.813Z,31.97
2023-09-12T15:06:45.691Z,32.06
2023-09-12T15:09:15.758Z,31.72
2023-09-12T15:11:44.565Z,32.11
2023-09-12T15:14:13.380Z,31.82
2023-09-12T15:16:42.211Z,30.83
2023-09-12T15:19:11.279Z,31.27
2023-09-12T15:21:40.257Z,31.02
2023-09-12T15:24:10.011Z,30.86
2023-09-12T15:26:38.846Z,30.62
2023-09-12T15:29:09.084Z,30.68
2023-09-12T15:31:38.744Z,30.44
2023-09-12T15:34:07.553Z,30.40
2023-09-12T15:36:49.497Z,30.45
2023-09-12T15:39:18.240Z,30.29
2023-09-12T15:41:46.995Z,30.16
2023-09-12T15:44:16.597Z,30.10
2023-09-12T15:46:45.639Z,29.80
2023-09-12T15:49:14.556Z,29.48
2023-09-12T15:51:43.749Z,28.93
2023-09-12T15:54:13.184Z,29.03
2023-09-12T15:56:42.290Z,29.19
2023-09-12T15:59:11.219Z,28.88
2023-09-12T16:01:40.250Z,28.61
2023-09-12T16:04:10.266Z,28.16
2023-09-12T16:06:39.255Z,27.66
2023-09-12T16:09:08.042Z,27.26
2023-09-12T16:11:36.819Z,27.04
2023-09-12T16:14:05.497Z,26.91
2023-09-12T16:16:34.443Z,26.75
2023-09-12T16:19:07.528Z,26.53
2023-09-12T16:21:39.612Z,26.42
2023-09-12T16:24:11.716Z,26.19
2023-09-12T16:26:40.413Z,26.05
2023-09-12T16:29:09.203Z,25.84
2023-09-12T16:31:38.187Z,25.80
2023-09-12T16:34:07.078Z,25.69
2023-09-12T16:36:36.338Z,25.54
2023-09-12T16:39:05.280Z,25.33
2023-09-12T16:41:34.670Z,25.13
2023-09-12T16:44:04.196Z,24.93
2023-09-12T16:46:33.103Z,24.78
2023-09-12T16:49:01.960Z,24.60
2023-09-12T16:51:30.929Z,24.45
2023-09-12T16:53:59.889Z,24.28
2023-09-12T16:56:28.633Z,24.12
2023-09-12T16:58:57.395Z,23.97
2023-09-12T17:01:26.332Z,23.83
2023-09-12T17:04:06.273Z,23.69
2023-09-12T17:06:35.846Z,23.59
2023-09-12T17:09:05.181Z,23.47
2023-09-12T17:11:34.212Z,23.36
2023-09-12T17:14:03.293Z,23.24
2023-09-12T17:16:32.070Z,23.13
2023-09-12T17:19:01.045Z,23.02
2023-09-12T17:21:29.990Z,22.92
2023-09-12T17:23:58.823Z,22.83
2023-09-12T17:26:27.792Z,22.71
2023-09-12T17:28:56.599Z,22.64
2023-09-12T17:32:31.996Z,22.56
2023-09-12T17:35:04.152Z,22.46
2023-09-12T17:37:33.182Z,22.41
2023-09-12T17:40:02.409Z,22.35
2023-09-12T17:42:32.199Z,22.34
2023-09-12T17:45:01.701Z,22.26
2023-09-12T17:47:31.070Z,22.28
2023-09-12T17:49:59.866Z,22.22
2023-09-12T17:52:28.754Z,22.17
2023-09-12T17:54:57.793Z,22.09
2023-09-12T17:57:26.929Z,21.98
2023-09-12T17:59:56.814Z,21.92
2023-09-12T18:02:25.657Z,21.83
2023-09-12T18:04:54.830Z,21.74
2023-09-12T18:07:24.911Z,21.64
2023-09-12T18:09:53.893Z,21.58
2023-09-12T18:12:22.780Z,21.50
2023-09-12T18:14:54.233Z,21.44
2023-09-12T18:17:23.031Z,21.38
2023-09-12T18:19:52.211Z,21.34
2023-09-12T18:22:21.060Z,21.30
2023-09-12T18:24:49.766Z,21.23
2023-09-12T18:27:18.508Z,21.14
2023-09-12T18:29:47.355Z,21.14
2023-09-12T18:32:18.158Z,21.08
2023-09-12T18:34:46.993Z,21.01
2023-09-12T18:37:16.072Z,20.93
2023-09-12T18:39:45.000Z,20.85
2023-09-12T18:42:13.782Z,20.72
2023-09-12T18:44:42.637Z,20.57
2023-09-12T18:47:11.605Z,20.36
2023-09-12T18:49:40.594Z,20.16
2023-09-12T18:52:09.505Z,19.99
2023-09-12T18:54:38.530Z,19.87
2023-09-12T18:57:12.171Z,19.74
2023-09-12T18:59:42.081Z,19.66
2023-09-12T19:02:11.325Z,19.60
2023-09-12T19:04:40.508Z,19.54
2023-09-12T19:07:09.507Z,19.50
2023-09-12T19:09:38.573Z,19.45
2023-09-12T19:12:08.050Z,19.39
2023-09-12T19:14:36.769Z,19.33
2023-09-12T19:17:06.849Z,19.23
2023-09-12T19:19:35.650Z,19.10
2023-09-12T19:22:05.029Z,18.94
2023-09-12T19:24:33.937Z,18.86
2023-09-12T19:27:04.655Z,18.76
2023-09-12T19:29:53.582Z,18.63
2023-09-12T19:32:28.840Z,18.49
2023-09-12T19:35:00.837Z,18.40
2023-09-12T19:37:29.841Z,18.35
2023-09-12T19:39:59.079Z,18.34
2023-09-12T19:42:28.071Z,18.33
2023-09-12T19:44:57.062Z,18.38
2023-09-12T19:47:26.078Z,18.45
2023-09-12T19:49:54.968Z,18.48
2023-09-12T19:52:25.703Z,18.42
2023-09-12T19:54:54.505Z,18.34
2023-09-12T19:57:25.946Z,18.28
2023-09-12T19:59:54.693Z,18.22
2023-09-12T20:02:23.479Z,18.18
2023-09-12T20:04:52.588Z,18.12
2023-09-12T20:07:21.528Z,18.08
2023-09-12T20:09:50.525Z,18.04
2023-09-12T20:12:19.406Z,18.01
2023-09-12T20:14:48.305Z,17.97
2023-09-12T20:17:17.063Z,17.93
2023-09-12T20:19:46.209Z,17.89
2023-09-12T20:22:15.113Z,17.85
2023-09-12T20:24:44.122Z,17.80
2023-09-12T20:27:12.861Z,17.74
2023-09-12T20:29:41.567Z,17.68
2023-09-12T20:32:10.489Z,17.65
2023-09-12T20:34:39.324Z,17.61
2023-09-12T20:37:10.289Z,17.58
2023-09-12T20:39:39.162Z,17.57
2023-09-12T20:42:07.969Z,17.52
2023-09-12T20:44:36.646Z,17.52
2023-09-12T20:47:05.656Z,17.51
2023-09-12T20:49:38.704Z,17.45
2023-09-12T20:52:10.231Z,17.38
2023-09-12T20:54:40.328Z,17.27
2023-09-12T20:57:12.176Z,17.20
2023-09-12T20:59:40.858Z,17.18
2023-09-12T21:02:09.664Z,17.10
2023-09-12T21:04:38.862Z,17.02
2023-09-12T21:07:07.742Z,16.98
2023-09-12T21:09:36.791Z,16.94
2023-09-12T21:12:06.320Z,16.87
2023-09-12T21:14:36.258Z,16.83
2023-09-12T21:17:05.339Z,16.78
2023-09-12T21:19:34.069Z,16.76
2023-09-12T21:22:03.114Z,16.71
2023-09-12T21:24:33.575Z,16.70
2023-09-12T21:27:02.838Z,16.75
2023-09-12T21:29:31.581Z,16.84
2023-09-12T21:32:00.405Z,16.90
2023-09-12T21:34:29.441Z,17.13
2023-09-12T21:36:58.218Z,17.25
2023-09-12T21:39:26.975Z,17.45
2023-09-12T21:41:57.277Z,17.68
2023-09-12T21:44:25.994Z,18.24
2023-09-12T21:46:54.803Z,18.38
2023-09-12T21:49:23.515Z,18.38
2023-09-12T21:51:53.101Z,18.40
2023-09-12T21:54:21.864Z,18.41
2023-09-12T21:56:50.715Z,18.43
2023-09-12T21:59:19.864Z,18.50
2023-09-12T22:01:48.594Z,18.50
2023-09-12T22:04:17.504Z,18.47
2023-09-12T22:06:46.243Z,18.40
2023-09-12T22:09:15.047Z,18.35
2023-09-12T22:11:43.766Z,18.29
2023-09-12T22:14:12.465Z,18.21
2023-09-12T22:16:41.206Z,18.12
2023-09-12T22:19:10.029Z,18.10
2023-09-12T22:21:38.855Z,18.08
2023-09-12T22:24:08.060Z,18.07
2023-09-12T22:26:36.767Z,18.07
2023-09-12T22:29:05.689Z,18.10
2023-09-12T22:31:34.436Z,18.08
2023-09-12T22:34:03.239Z,17.97
2023-09-12T22:36:31.996Z,17.98
2023-09-12T22:39:00.755Z,17.99
2023-09-12T22:41:29.860Z,17.99
2023-09-12T22:43:59.388Z,18.00
2023-09-12T22:46:28.246Z,18.05
2023-09-12T22:48:57.153Z,18.13
2023-09-12T22:51:25.901Z,18.17
2023-09-12T22:53:54.773Z,18.18
2023-09-12T22:56:23.519Z,18.18
2023-09-12T22:58:52.260Z,18.15
2023-09-12T23:01:21.264Z,18.05
2023-09-12T23:03:50.235Z,17.98
2023-09-12T23:06:19.218Z,17.92
2023-09-12T23:08:48.453Z,17.86
2023-09-12T23:11:17.301Z,17.82
2023-09-12T23:13:46.339Z,17.81
2023-09-12T23:16:15.347Z,17.79
2023-09-12T23:18:44.144Z,17.83
2023-09-12T23:21:12.889Z,17.88
2023-09-12T23:23:42.006Z,17.92
2023-09-12T23:26:10.976Z,17.98
2023-09-12T23:28:39.707Z,18.02
2023-09-12T23:31:08.466Z,18.04
2023-09-12T23:33:37.259Z,18.05
2023-09-12T23:36:06.134Z,18.05
2023-09-12T23:38:34.831Z,18.07
2023-09-12T23:41:03.826Z,18.08
2023-09-12T23:43:33.598Z,18.10
2023-09-12T23:46:02.318Z,18.19
2023-09-12T23:48:31.137Z,18.26
2023-09-12T23:50:59.737Z,18.26
2023-09-12T23:53:28.508Z,18.26
2023-09-12T23:56:01.921Z,18.31
2023-09-12T23:58:30.613Z,18.31
